Time;durP1;ratioP1;P1;durP2;ratioP2;P2;SDS_P1;SDS_P2;PMS_P1;PMS_P2;Temp;Humidity;BMP_temperature;BMP_pressure;BME280_temperature;BME280_humidity;BME280_pressure;Samples;Min_cycle;Max_cycle;Signal;HPM_P1;HPM_P2
2023/10/08 00:00:45;;;;;;;4.63;3.53;;;20.30;54.30;;;;;;5091533;28;20239;-63
2023/10/08 00:03:13;;;;;;;4.27;3.30;;;20.30;54.20;;;;;;5091699;28;20204;-64
2023/10/08 00:05:40;;;;;;;5.97;4.10;;;20.30;54.10;;;;;;5091818;28;20630;-64
2023/10/08 00:08:08;;;;;;;7.17;3.60;;;20.30;54.20;;;;;;5095762;28;20571;-64
2023/10/08 00:10:41;;;;;;;6.73;3.90;;;20.40;54.20;;;;;;5095246;28;20232;-64
2023/10/08 00:13:09;;;;;;;5.53;3.63;;;20.40;54.20;;;;;;5094766;28;20646;-64
2023/10/08 00:15:37;;;;;;;5.70;3.80;;;20.30;54.10;;;;;;5094753;28;20215;-63
2023/10/08 00:18:06;;;;;;;5.70;3.43;;;20.40;54.30;;;;;;5095392;28;20287;-64
2023/10/08 00:20:42;;;;;;;5.10;3.53;;;20.40;54.30;;;;;;5095248;28;20282;-64
2023/10/08 00:23:09;;;;;;;5.80;3.90;;;20.40;54.30;;;;;;5095427;28;20212;-63
2023/10/08 00:25:40;;;;;;;6.90;3.97;;;20.30;54.30;;;;;;5094730;28;20278;-64
2023/10/08 00:28:12;;;;;;;5.43;3.53;;;20.30;54.30;;;;;;5095194;28;20302;-64
2023/10/08 00:30:41;;;;;;;6.50;3.90;;;20.30;54.10;;;;;;5095278;28;20219;-63
2023/10/08 00:33:09;;;;;;;5.50;3.60;;;20.30;53.90;;;;;;5095102;28;20741;-63
2023/10/08 00:35:42;;;;;;;6.77;3.53;;;20.30;54.30;;;;;;5095048;28;20299;-64
2023/10/08 00:38:14;;;;;;;8.23;3.63;;;20.40;53.40;;;;;;5094931;28;20227;-64
2023/10/08 00:40:45;;;;;;;7.13;3.50;;;20.40;53.00;;;;;;5094875;28;20679;-64
2023/10/08 00:43:31;;;;;;;7.50;3.80;;;20.40;52.80;;;;;;5094238;28;20776;-64
2023/10/08 00:45:59;;;;;;;4.93;3.77;;;20.40;52.30;;;;;;5094951;28;20211;-63
2023/10/08 00:48:29;;;;;;;5.03;3.37;;;20.50;52.30;;;;;;5094667;28;20232;-64
2023/10/08 00:51:09;;;;;;;6.33;3.67;;;20.50;52.20;;;;;;5075779;28;20287;-63
2023/10/08 00:53:39;;;;;;;5.27;3.70;;;20.40;51.90;;;;;;5094867;28;20239;-63
2023/10/08 00:56:13;;;;;;;5.33;3.30;;;20.40;51.60;;;;;;5094488;28;20736;-64
2023/10/08 00:58:42;;;;;;;4.93;3.40;;;20.40;51.40;;;;;;5094954;28;20232;-64
2023/10/08 01:01:10;;;;;;;5.17;3.20;;;20.50;52.00;;;;;;5095208;28;20208;-64
2023/10/08 01:03:44;;;;;;;5.60;3.53;;;20.50;51.30;;;;;;5094941;28;20244;-64
2023/10/08 01:06:11;;;;;;;5.80;3.20;;;20.50;51.10;;;;;;5095208;28;20373;-64
2023/10/08 01:08:45;;;;;;;5.43;3.60;;;20.50;51.20;;;;;;5095466;28;20219;-64
2023/10/08 01:11:19;;;;;;;6.80;3.70;;;20.50;51.00;;;;;;5094792;28;20328;-63
2023/10/08 01:13:49;;;;;;;5.63;3.83;;;20.50;51.00;;;;;;5074892;28;20303;-64
2023/10/08 01:16:17;;;;;;;6.00;3.77;;;20.50;51.00;;;;;;5073995;28;20280;-63
2023/10/08 01:18:49;;;;;;;5.30;3.73;;;20.50;51.00;;;;;;5074724;28;20296;-64
2023/10/08 01:21:33;;;;;;;4.73;3.40;;;20.50;50.80;;;;;;5083901;28;20215;-63
2023/10/08 01:24:06;;;;;;;5.37;3.53;;;20.50;50.80;;;;;;5094363;28;20727;-64
2023/10/08 01:26:38;;;;;;;6.77;3.37;;;20.50;50.80;;;;;;5094233;28;20663;-63
2023/10/08 01:29:07;;;;;;;5.10;3.33;;;20.50;50.90;;;;;;5094489;28;20215;-64
2023/10/08 01:31:33;;;;;;;5.00;3.60;;;20.40;50.90;;;;;;5094014;28;20569;-63
2023/10/08 01:34:04;;;;;;;6.03;3.57;;;20.40;50.90;;;;;;5094008;28;20661;-64
2023/10/08 01:36:31;;;;;;;5.20;3.50;;;20.40;50.90;;;;;;5093969;28;20224;-64
2023/10/08 01:39:01;;;;;;;6.03;3.70;;;20.40;50.90;;;;;;5094106;28;20204;-63
2023/10/08 01:41:30;;;;;;;5.50;3.73;;;20.40;50.90;;;;;;5093700;28;20225;-62
2023/10/08 01:43:58;;;;;;;5.13;3.17;;;20.40;50.70;;;;;;5093523;28;20247;-64
2023/10/08 01:46:27;;;;;;;5.77;3.40;;;20.40;50.80;;;;;;5093665;28;20234;-64
2023/10/08 01:49:01;;;;;;;6.93;3.43;;;20.40;50.20;;;;;;5109800;28;20189;-64
2023/10/08 01:51:37;;;;;;;5.37;3.53;;;20.30;50.00;;;;;;5116414;28;20590;-64
2023/10/08 01:54:11;;;;;;;4.93;3.27;;;20.40;50.10;;;;;;5117640;28;20191;-64
2023/10/08 01:56:42;;;;;;;4.50;3.27;;;20.30;50.10;;;;;;5118800;28;20228;-64
2023/10/08 01:59:09;;;;;;;5.87;3.17;;;20.30;50.10;;;;;;5118353;28;20181;-64
2023/10/08 02:01:38;;;;;;;5.47;3.20;;;20.20;50.20;;;;;;5112425;28;20236;-63
2023/10/08 02:04:06;;;;;;;5.37;3.30;;;20.20;50.20;;;;;;5094015;28;20716;-63
2023/10/08 02:06:34;;;;;;;3.80;2.83;;;20.20;50.20;;;;;;5093828;28;20613;-63
2023/10/08 02:09:05;;;;;;;4.27;3.23;;;20.20;50.20;;;;;;5093534;28;20204;-64
2023/10/08 02:11:32;;;;;;;4.63;3.57;;;20.20;50.20;;;;;;5093800;28;20678;-63
2023/10/08 02:14:01;;;;;;;4.10;3.23;;;20.20;50.40;;;;;;5093249;28;20240;-64
2023/10/08 02:16:28;;;;;;;4.67;3.20;;;20.20;50.40;;;;;;5093203;28;20208;-63
2023/10/08 02:18:56;;;;;;;4.73;3.20;;;20.20;50.30;;;;;;5093544;28;20323;-63
2023/10/08 02:21:25;;;;;;;5.60;3.50;;;20.30;50.30;;;;;;5093451;28;20200;-64
2023/10/08 02:23:53;;;;;;;5.90;3.40;;;20.30;50.10;;;;;;5093176;28;20323;-64
2023/10/08 02:26:20;;;;;;;5.80;3.13;;;20.30;50.20;;;;;;5093147;28;20234;-64
2023/10/08 02:28:47;;;;;;;3.27;2.80;;;20.20;50.30;;;;;;5091909;28;20603;-64
2023/10/08 02:31:15;;;;;;;5.43;3.87;;;20.20;50.40;;;;;;5093579;28;20215;-64
2023/10/08 02:33:42;;;;;;;4.67;3.40;;;20.10;50.40;;;;;;5093168;28;20657;-64
2023/10/08 02:36:09;;;;;;;4.90;3.30;;;20.10;50.50;;;;;;5092574;28;20238;-64
2023/10/08 02:38:37;;;;;;;5.50;3.53;;;20.20;50.60;;;;;;5092553;28;20204;-62
2023/10/08 02:41:07;;;;;;;5.90;3.63;;;20.10;50.70;;;;;;5092542;28;20212;-63
2023/10/08 02:43:36;;;;;;;5.43;3.70;;;20.10;50.60;;;;;;5092521;28;20208;-63
2023/10/08 02:46:06;;;;;;;4.00;3.10;;;20.00;50.60;;;;;;5092942;28;20620;-63
2023/10/08 02:48:35;;;;;;;6.20;3.87;;;20.00;50.60;;;;;;5092775;28;20283;-63
2023/10/08 02:51:11;;;;;;;4.57;3.20;;;20.00;50.70;;;;;;5092487;28;20236;-64
2023/10/08 02:53:41;;;;;;;5.37;3.60;;;19.90;50.50;;;;;;5092310;28;20199;-64
2023/10/08 02:56:12;;;;;;;4.40;3.20;;;19.90;50.90;;;;;;5092429;28;20225;-63
2023/10/08 02:58:39;;;;;;;5.30;3.40;;;19.80;50.60;;;;;;5092752;28;20295;-64
2023/10/08 03:01:12;;;;;;;6.33;3.80;;;19.80;50.70;;;;;;5093154;28;20236;-63
2023/10/08 03:03:41;;;;;;;5.13;3.70;;;19.70;50.80;;;;;;5093027;28;20729;-63
2023/10/08 03:06:11;;;;;;;7.63;3.90;;;19.70;50.80;;;;;;5093073;28;20323;-63
2023/10/08 03:08:40;;;;;;;5.70;3.87;;;19.70;50.90;;;;;;5092737;28;20224;-64
2023/10/08 03:11:16;;;;;;;5.27;3.20;;;19.70;51.00;;;;;;5092592;28;20277;-64
2023/10/08 03:13:51;;;;;;;5.57;3.77;;;19.70;51.00;;;;;;5092693;28;20311;-64
2023/10/08 03:16:21;;;;;;;5.63;3.23;;;19.60;51.00;;;;;;5092739;28;20228;-65
2023/10/08 03:18:51;;;;;;;5.30;3.60;;;19.50;51.00;;;;;;5092748;28;20731;-63
2023/10/08 03:21:22;;;;;;;4.37;3.20;;;19.50;51.30;;;;;;5092619;28;20196;-64
2023/10/08 03:23:50;;;;;;;6.83;3.80;;;19.50;51.20;;;;;;5092685;28;20208;-63
2023/10/08 03:26:33;;;;;;;5.37;3.53;;;19.50;51.30;;;;;;5091938;28;20228;-63
2023/10/08 03:29:07;;;;;;;6.90;3.10;;;19.40;51.20;;;;;;5091477;28;20228;-64
2023/10/08 03:31:49;;;;;;;4.80;3.43;;;19.40;51.30;;;;;;5092331;28;20204;-63
2023/10/08 03:34:19;;;;;;;5.13;3.53;;;19.40;51.30;;;;;;5092066;28;20239;-64
2023/10/08 03:36:49;;;;;;;4.87;3.30;;;19.40;51.30;;;;;;5092128;28;20212;-63
2023/10/08 03:39:18;;;;;;;6.87;3.80;;;19.40;51.30;;;;;;5092572;28;20209;-63
2023/10/08 03:41:59;;;;;;;5.97;3.50;;;19.40;51.30;;;;;;5096666;28;20229;-64
2023/10/08 03:44:29;;;;;;;5.70;3.80;;;19.30;51.20;;;;;;5096782;28;20214;-64
2023/10/08 03:46:57;;;;;;;5.00;3.63;;;19.20;51.20;;;;;;5096599;28;20212;-64
2023/10/08 03:49:31;;;;;;;4.70;3.20;;;19.20;51.30;;;;;;5095510;28;20204;-64
2023/10/08 03:51:58;;;;;;;5.30;3.40;;;19.20;51.30;;;;;;5095374;28;20208;-63
2023/10/08 03:54:34;;;;;;;4.40;3.47;;;19.10;51.30;;;;;;5096118;28;20231;-64
2023/10/08 03:57:01;;;;;;;4.27;3.20;;;19.10;51.30;;;;;;5095894;28;20249;-64
2023/10/08 03:59:31;;;;;;;6.13;3.37;;;19.10;51.30;;;;;;5095756;28;20242;-63
2023/10/08 04:02:09;;;;;;;5.03;3.47;;;19.10;51.10;;;;;;5095676;28;20208;-64
2023/10/08 04:04:50;;;;;;;4.73;3.27;;;19.20;51.00;;;;;;5095729;28;20236;-63
2023/10/08 04:07:39;;;;;;;5.87;3.50;;;19.20;50.90;;;;;;5096045;28;20278;-63
2023/10/08 04:10:34;;;;;;;5.17;3.70;;;19.20;50.80;;;;;;5095927;28;20668;-63
2023/10/08 04:13:02;;;;;;;6.57;3.70;;;19.30;50.80;;;;;;5068394;28;20563;-63
2023/10/08 04:15:28;;;;;;;5.00;3.30;;;19.40;51.70;;;;;;5096108;28;20254;-63
2023/10/08 04:17:56;;;;;;;6.07;3.80;;;19.40;50.80;;;;;;5095322;28;20201;-64
2023/10/08 04:20:38;;;;;;;5.83;3.53;;;19.40;50.30;;;;;;5095165;28;20310;-63
2023/10/08 04:23:13;;;;;;;5.20;3.13;;;19.40;50.20;;;;;;5095148;28;20200;-64
2023/10/08 04:25:41;;;;;;;5.33;3.60;;;19.40;50.30;;;;;;5095045;28;20224;-64
2023/10/08 04:28:13;;;;;;;5.00;3.23;;;19.30;50.20;;;;;;5095349;28;20311;-63
2023/10/08 04:30:41;;;;;;;4.87;3.40;;;19.30;50.30;;;;;;5095234;28;20224;-63
2023/10/08 04:33:12;;;;;;;4.93;3.20;;;19.30;50.20;;;;;;5094729;28;20232;-63
2023/10/08 04:35:47;;;;;;;5.03;3.37;;;19.20;50.20;;;;;;5094991;28;20267;-63
2023/10/08 04:38:18;;;;;;;4.67;3.40;;;19.30;50.30;;;;;;5095228;28;20239;-63
2023/10/08 04:40:48;;;;;;;5.53;3.43;;;19.30;50.10;;;;;;5094819;28;20258;-64
2023/10/08 04:43:21;;;;;;;6.50;3.30;;;19.20;50.00;;;;;;5094940;28;20204;-64
2023/10/08 04:45:49;;;;;;;5.80;3.37;;;19.20;50.10;;;;;;5094665;28;20205;-63
2023/10/08 04:48:20;;;;;;;5.37;3.20;;;19.20;50.20;;;;;;5094698;28;20721;-66
2023/10/08 04:50:57;;;;;;;4.47;3.33;;;19.20;50.10;;;;;;5094677;28;20729;-64
2023/10/08 04:53:31;;;;;;;4.40;3.10;;;19.10;50.20;;;;;;5094326;28;20243;-63
2023/10/08 04:56:02;;;;;;;4.77;3.23;;;19.10;50.20;;;;;;5095332;28;20728;-63
2023/10/08 04:58:33;;;;;;;6.03;3.70;;;19.10;50.40;;;;;;5094461;28;20290;-63
2023/10/08 05:01:16;;;;;;;5.77;3.13;;;19.10;50.40;;;;;;5094518;28;20668;-64
2023/10/08 05:03:55;;;;;;;5.23;3.33;;;18.90;50.40;;;;;;5094520;28;20254;-63
2023/10/08 05:06:49;;;;;;;5.10;3.40;;;18.90;50.60;;;;;;5094749;28;20208;-63
2023/10/08 05:09:22;;;;;;;3.80;3.03;;;18.80;50.60;;;;;;5094393;28;20232;-63
2023/10/08 05:14:38;;;;;;;4.77;3.23;;;18.80;50.80;;;;;;5093985;28;20703;-63
2023/10/08 05:17:09;;;;;;;4.50;3.10;;;18.80;50.90;;;;;;5094185;28;20549;-63
2023/10/08 05:19:56;;;;;;;4.70;3.40;;;18.70;50.80;;;;;;5094453;28;20236;-64
2023/10/08 05:22:44;;;;;;;7.17;3.30;;;18.70;50.80;;;;;;5064540;28;20279;-64
2023/10/08 05:25:24;;;;;;;3.90;3.00;;;18.80;51.00;;;;;;5094028;28;20228;-64
2023/10/08 05:28:09;;;;;;;5.67;3.07;;;18.80;51.20;;;;;;5094358;28;20224;-63
2023/10/08 05:30:38;;;;;;;4.50;3.23;;;18.90;51.30;;;;;;5094156;28;20204;-63
2023/10/08 05:33:12;;;;;;;5.97;3.40;;;18.90;51.80;;;;;;5094068;28;20941;-63
2023/10/08 05:35:49;;;;;;;4.67;3.10;;;18.90;51.10;;;;;;5093930;28;20251;-64
2023/10/08 05:38:38;;;;;;;5.83;3.17;;;18.90;51.10;;;;;;5074854;28;20293;-63
2023/10/08 05:41:05;;;;;;;4.97;3.33;;;18.90;51.00;;;;;;5093955;28;20603;-63
2023/10/08 05:46:39;;;;;;;6.43;3.40;;;18.90;50.80;;;;;;5093628;28;20231;-63
2023/10/08 05:49:26;;;;;;;4.57;3.37;;;18.90;50.80;;;;;;5094020;28;20233;-63
2023/10/08 05:52:13;;;;;;;4.40;3.17;;;19.00;50.80;;;;;;5094666;28;20664;-63
2023/10/08 05:54:57;;;;;;;5.13;3.27;;;19.00;50.90;;;;;;5094057;28;20209;-64
2023/10/08 05:57:38;;;;;;;6.13;3.50;;;19.00;50.80;;;;;;5094140;28;20258;-63
2023/10/08 06:00:29;;;;;;;4.60;3.60;;;19.00;50.80;;;;;;5093543;28;20626;-62
2023/10/08 06:03:11;;;;;;;5.07;3.23;;;19.00;50.80;;;;;;5093185;28;20240;-63
2023/10/08 06:05:45;;;;;;;4.17;3.10;;;19.10;50.90;;;;;;5093577;28;20299;-64
2023/10/08 06:08:12;;;;;;;5.70;3.53;;;19.00;50.80;;;;;;5093149;28;20630;-63
2023/10/08 06:10:56;;;;;;;5.70;3.40;;;19.00;51.00;;;;;;5093725;28;20204;-63
2023/10/08 06:13:29;;;;;;;4.47;3.17;;;18.90;51.00;;;;;;5093250;28;20216;-64
2023/10/08 06:16:05;;;;;;;6.50;3.47;;;18.90;51.40;;;;;;5093799;28;20205;-63
2023/10/08 06:18:33;;;;;;;5.53;3.60;;;18.90;51.50;;;;;;5093725;28;20660;-64
2023/10/08 06:21:08;;;;;;;6.60;3.80;;;18.90;51.60;;;;;;5093488;28;20200;-67
2023/10/08 06:23:36;;;;;;;4.70;3.70;;;18.90;51.70;;;;;;5093474;28;20215;-64
2023/10/08 06:26:13;;;;;;;7.13;3.57;;;18.90;51.90;;;;;;5091634;28;20764;-63
2023/10/08 06:28:42;;;;;;;4.97;3.33;;;18.90;52.00;;;;;;5092377;28;20321;-63
2023/10/08 06:31:11;;;;;;;5.23;3.67;;;18.90;52.00;;;;;;5093239;28;20208;-63
2023/10/08 06:33:40;;;;;;;4.63;3.27;;;19.00;52.30;;;;;;5092748;28;20356;-62
2023/10/08 06:36:13;;;;;;;6.50;3.80;;;19.00;52.10;;;;;;5092886;28;20295;-62
2023/10/08 06:38:42;;;;;;;5.07;3.50;;;19.00;52.00;;;;;;5093171;28;20228;-64
2023/10/08 06:41:17;;;;;;;4.80;3.57;;;19.10;52.10;;;;;;5093132;28;20200;-64
2023/10/08 06:43:47;;;;;;;5.03;3.57;;;19.20;52.20;;;;;;5093131;28;20285;-63
2023/10/08 06:46:15;;;;;;;5.10;3.40;;;19.10;52.60;;;;;;5073709;28;20250;-63
2023/10/08 06:48:43;;;;;;;8.57;4.20;;;19.10;52.20;;;;;;5092709;28;20236;-64
2023/10/08 06:51:13;;;;;;;5.90;3.77;;;19.10;52.10;;;;;;5092955;28;20303;-63
2023/10/08 06:53:40;;;;;;;4.67;3.43;;;19.00;52.10;;;;;;5092439;28;20229;-63
2023/10/08 06:56:11;;;;;;;4.80;3.40;;;19.00;52.30;;;;;;5093447;28;20424;-63
2023/10/08 06:58:42;;;;;;;5.40;3.73;;;19.00;52.50;;;;;;5092258;28;20204;-63
2023/10/08 07:01:09;;;;;;;4.90;3.33;;;19.10;52.60;;;;;;5092672;28;20208;-64
2023/10/08 07:03:38;;;;;;;5.97;3.80;;;19.10;52.60;;;;;;5092469;28;20273;-63
2023/10/08 07:06:16;;;;;;;5.30;4.20;;;19.20;52.70;;;;;;5092484;28;20204;-63
2023/10/08 07:08:46;;;;;;;5.23;3.47;;;19.10;52.60;;;;;;5092277;28;20647;-63
2023/10/08 07:11:14;;;;;;;7.17;3.60;;;19.10;53.00;;;;;;5091934;28;20683;-63
2023/10/08 07:13:42;;;;;;;6.63;4.33;;;19.00;53.20;;;;;;5072545;28;20244;-64
2023/10/08 07:16:12;;;;;;;4.53;3.83;;;18.90;53.70;;;;;;5071530;28;20240;-64
2023/10/08 07:18:39;;;;;;;7.63;3.93;;;18.90;54.00;;;;;;5071817;28;20209;-63
2023/10/08 07:21:11;;;;;;;6.17;3.40;;;19.00;54.80;;;;;;5079968;28;20461;-63
2023/10/08 07:23:55;;;;;;;6.40;4.33;;;19.00;54.30;;;;;;5092156;28;20721;-64
2023/10/08 07:26:24;;;;;;;7.83;4.10;;;19.00;54.40;;;;;;5091669;28;20260;-63
2023/10/08 07:28:55;;;;;;;6.43;3.90;;;19.10;54.70;;;;;;5091719;28;20220;-64
2023/10/08 07:31:24;;;;;;;5.47;3.47;;;19.20;54.90;;;;;;5092034;28;20232;-64
2023/10/08 07:33:56;;;;;;;6.17;3.90;;;19.20;55.10;;;;;;5092218;28;20212;-63
2023/10/08 07:36:23;;;;;;;6.83;4.60;;;19.20;55.20;;;;;;5092125;28;20236;-63
2023/10/08 07:38:52;;;;;;;5.87;3.97;;;19.20;55.40;;;;;;5090602;28;20197;-63
2023/10/08 07:41:20;;;;;;;6.57;4.07;;;19.30;55.60;;;;;;5091829;28;20238;-63
2023/10/08 07:43:53;;;;;;;6.27;4.03;;;19.30;55.60;;;;;;5095233;28;20208;-63
2023/10/08 07:46:21;;;;;;;7.63;4.50;;;19.40;55.80;;;;;;5109220;28;20208;-64
2023/10/08 07:48:50;;;;;;;9.43;4.60;;;19.50;56.00;;;;;;5114925;28;20288;-64
2023/10/08 07:51:17;;;;;;;5.57;3.97;;;19.60;55.80;;;;;;5114549;28;20292;-63
2023/10/08 07:53:45;;;;;;;7.70;4.40;;;19.70;55.60;;;;;;5112659;28;20200;-63
2023/10/08 07:56:12;;;;;;;5.67;4.23;;;19.70;55.40;;;;;;5110996;28;20209;-64
2023/10/08 07:58:38;;;;;;;6.47;4.10;;;19.80;55.30;;;;;;5109346;28;20228;-66
2023/10/08 08:01:07;;;;;;;8.20;4.33;;;20.00;55.40;;;;;;5111070;28;20243;-63
2023/10/08 08:03:36;;;;;;;5.77;4.17;;;20.10;55.20;;;;;;5106580;28;20220;-63
2023/10/08 08:06:05;;;;;;;6.83;3.80;;;20.00;55.00;;;;;;5091958;28;20656;-64
2023/10/08 08:08:33;;;;;;;5.83;4.10;;;20.00;55.00;;;;;;5091738;28;20490;-64
2023/10/08 08:11:06;;;;;;;6.00;4.10;;;20.00;55.20;;;;;;5091710;28;20208;-63
2023/10/08 08:13:33;;;;;;;5.67;4.07;;;20.10;55.30;;;;;;5091858;28;20212;-64
2023/10/08 08:16:09;;;;;;;6.47;3.97;;;20.30;55.10;;;;;;5091812;28;20215;-64
2023/10/08 08:18:38;;;;;;;6.27;3.70;;;20.20;54.80;;;;;;5091530;28;20238;-63
2023/10/08 08:21:20;;;;;;;6.80;4.20;;;20.30;55.00;;;;;;5091584;28;20291;-64
2023/10/08 08:23:50;;;;;;;6.50;4.40;;;20.50;55.20;;;;;;5091088;28;20250;-64
2023/10/08 08:26:27;;;;;;;5.77;3.97;;;20.60;55.00;;;;;;5091648;28;20220;-64
2023/10/08 08:28:59;;;;;;;4.90;3.70;;;20.70;54.60;;;;;;5095374;28;20220;-64
2023/10/08 08:31:27;;;;;;;7.20;4.17;;;20.80;54.40;;;;;;5095556;28;20423;-64
2023/10/08 08:33:59;;;;;;;5.97;3.83;;;20.80;54.40;;;;;;5095548;28;20210;-63
2023/10/08 08:36:27;;;;;;;5.73;4.10;;;21.00;54.30;;;;;;5095948;28;20205;-64
2023/10/08 08:38:55;;;;;;;7.37;4.00;;;21.00;54.20;;;;;;5095269;28;20203;-64
2023/10/08 08:41:23;;;;;;;7.37;4.00;;;21.20;54.30;;;;;;5095091;28;20229;-63
2023/10/08 08:43:56;;;;;;;6.37;4.10;;;21.30;54.10;;;;;;5095023;28;20212;-64
2023/10/08 08:46:29;;;;;;;6.83;4.30;;;21.30;53.60;;;;;;5094290;28;20236;-64
2023/10/08 08:49:01;;;;;;;7.87;4.33;;;21.30;53.40;;;;;;5075472;28;20305;-63
2023/10/08 08:51:30;;;;;;;6.57;4.63;;;21.40;54.10;;;;;;5094848;28;20323;-64
2023/10/08 08:53:59;;;;;;;6.53;4.10;;;21.50;53.60;;;;;;5094007;28;20200;-64
2023/10/08 08:56:28;;;;;;;5.17;3.73;;;21.60;53.60;;;;;;5095001;28;20236;-64
2023/10/08 08:58:59;;;;;;;6.40;3.73;;;21.80;53.60;;;;;;5094776;28;20205;-64
2023/10/08 09:01:26;;;;;;;5.47;3.67;;;21.90;53.50;;;;;;5094657;28;20322;-63
2023/10/08 09:03:52;;;;;;;6.23;4.10;;;21.90;53.10;;;;;;5094880;28;20303;-64
2023/10/08 09:06:21;;;;;;;5.43;3.90;;;21.90;52.90;;;;;;5094599;28;20319;-62
2023/10/08 09:08:49;;;;;;;5.17;3.70;;;22.00;53.60;;;;;;5094439;28;20224;-63
2023/10/08 09:11:17;;;;;;;6.03;4.43;;;22.00;53.60;;;;;;5094367;28;20573;-64
2023/10/08 09:13:44;;;;;;;5.90;3.70;;;22.10;53.20;;;;;;5094582;28;20212;-63
2023/10/08 09:16:14;;;;;;;4.97;3.63;;;22.20;53.00;;;;;;5094623;28;20200;-63
2023/10/08 09:18:43;;;;;;;4.07;3.50;;;22.30;53.10;;;;;;5094017;28;20204;-64
2023/10/08 09:21:11;;;;;;;7.33;3.80;;;22.30;52.50;;;;;;5093797;28;20197;-62
2023/10/08 09:23:47;;;;;;;6.50;3.73;;;22.30;52.60;;;;;;5093794;28;20319;-63
2023/10/08 09:26:14;;;;;;;5.30;3.90;;;22.30;52.40;;;;;;5094116;28;20250;-64
2023/10/08 09:28:46;;;;;;;4.97;3.43;;;22.40;52.50;;;;;;5095288;28;20599;-63
2023/10/08 09:31:13;;;;;;;4.93;3.60;;;22.30;51.90;;;;;;5094219;28;20212;-63
2023/10/08 09:33:41;;;;;;;5.83;3.80;;;22.40;52.00;;;;;;5093686;28;20782;-63
2023/10/08 09:36:18;;;;;;;5.43;3.53;;;22.50;52.50;;;;;;5093736;28;20675;-64
2023/10/08 09:38:48;;;;;;;5.83;3.30;;;22.50;52.00;;;;;;5093535;28;20647;-64
2023/10/08 09:41:15;;;;;;;5.73;3.53;;;22.60;52.10;;;;;;5094345;28;20200;-63
2023/10/08 09:43:45;;;;;;;5.40;3.83;;;22.60;52.20;;;;;;5093577;28;20315;-64
2023/10/08 09:46:20;;;;;;;7.67;3.77;;;22.60;51.90;;;;;;5093545;28;20204;-64
2023/10/08 09:48:52;;;;;;;5.87;3.63;;;22.60;51.80;;;;;;5093863;28;20228;-64
2023/10/08 09:51:20;;;;;;;5.90;3.73;;;22.70;52.20;;;;;;5093458;28;20216;-63
2023/10/08 09:54:05;;;;;;;4.97;3.30;;;22.80;51.90;;;;;;5093322;28;20219;-64
2023/10/08 09:56:34;;;;;;;5.03;3.50;;;22.90;51.80;;;;;;5093501;28;20203;-64
2023/10/08 09:59:01;;;;;;;5.67;3.57;;;23.00;51.80;;;;;;5096799;28;20617;-64
2023/10/08 10:01:31;;;;;;;4.57;3.67;;;23.10;51.60;;;;;;5105964;28;20276;-63
2023/10/08 10:03:59;;;;;;;5.57;3.70;;;23.20;51.60;;;;;;5113839;28;20212;-64
2023/10/08 10:06:29;;;;;;;6.50;3.50;;;23.30;51.30;;;;;;5113414;28;20209;-64
2023/10/08 10:08:58;;;;;;;4.60;3.20;;;23.30;51.30;;;;;;5114060;28;20209;-63
2023/10/08 10:11:27;;;;;;;4.97;3.43;;;23.50;51.50;;;;;;5114013;28;20275;-63
2023/10/08 10:14:00;;;;;;;7.30;3.60;;;23.80;51.00;;;;;;5097495;28;20633;-63
2023/10/08 10:16:27;;;;;;;6.43;3.83;;;24.00;50.80;;;;;;5094513;28;20228;-63
2023/10/08 10:18:58;;;;;;;5.50;3.37;;;24.10;50.60;;;;;;5093595;28;20200;-63
2023/10/08 10:21:31;;;;;;;4.57;3.37;;;24.30;51.00;;;;;;5092665;28;20232;-64
2023/10/08 10:24:02;;;;;;;8.33;3.23;;;24.50;50.70;;;;;;5093197;28;20242;-63
2023/10/08 10:26:31;;;;;;;6.00;3.60;;;24.70;50.90;;;;;;5093150;28;20228;-63
2023/10/08 10:29:25;;;;;;;5.63;3.53;;;24.80;50.60;;;;;;5093016;28;20207;-64
2023/10/08 10:31:54;;;;;;;4.87;3.50;;;24.90;50.50;;;;;;5093021;28;20232;-63
2023/10/08 10:34:22;;;;;;;5.03;3.70;;;25.10;50.70;;;;;;5092489;28;20675;-64
2023/10/08 10:36:55;;;;;;;6.47;4.20;;;25.10;50.30;;;;;;5092872;28;20259;-64
2023/10/08 10:39:30;;;;;;;6.73;3.70;;;25.10;50.20;;;;;;5092960;28;20196;-63
2023/10/08 10:42:01;;;;;;;4.57;3.30;;;25.20;50.60;;;;;;5092701;28;20594;-63
2023/10/08 10:44:29;;;;;;;4.37;3.47;;;25.40;50.10;;;;;;5092685;28;20600;-63
2023/10/08 10:49:47;;;;;;;6.03;3.73;;;25.50;50.00;;;;;;5091564;28;20692;-63
2023/10/08 10:52:17;;;;;;;5.77;3.70;;;25.60;50.00;;;;;;5092551;28;20299;-65
2023/10/08 10:54:58;;;;;;;5.83;3.77;;;25.60;50.00;;;;;;5092348;28;20285;-63
2023/10/08 10:57:34;;;;;;;6.60;3.90;;;25.80;49.80;;;;;;5092620;28;20300;-63
2023/10/08 11:00:46;;;;;;;6.87;3.83;;;26.00;48.90;;;;;;5093124;28;20212;-62
2023/10/08 11:02:59;;;;;;;5.30;3.40;;;26.00;49.30;;;;;;5091969;28;20208;-64
2023/10/08 11:05:28;;;;;;;6.07;4.23;;;26.20;49.60;;;;;;5092241;28;20204;-64
2023/10/08 11:08:00;;;;;;;5.73;4.00;;;26.30;48.80;;;;;;5092545;28;20209;-63
2023/10/08 11:10:30;;;;;;;8.50;4.53;;;26.30;48.40;;;;;;5092434;28;20335;-63
2023/10/08 11:13:00;;;;;;;6.33;4.63;;;26.40;48.70;;;;;;5092391;28;20262;-64
2023/10/08 11:15:37;;;;;;;4.67;3.47;;;26.60;49.20;;;;;;5092351;28;20355;-64
2023/10/08 11:18:09;;;;;;;4.97;3.60;;;26.80;47.80;;;;;;5092470;28;20243;-64
2023/10/08 11:20:39;;;;;;;7.33;3.67;;;27.00;47.60;;;;;;5093006;28;20224;-64
2023/10/08 11:23:18;;;;;;;7.87;3.83;;;27.10;47.80;;;;;;5092192;28;20202;-64
2023/10/08 11:26:00;;;;;;;4.77;3.70;;;27.30;47.40;;;;;;5092095;28;20237;-64
2023/10/08 11:28:28;;;;;;;5.77;3.40;;;27.40;47.00;;;;;;5092245;28;20215;-64
2023/10/08 11:30:59;;;;;;;5.80;3.80;;;27.50;46.10;;;;;;5092020;28;20750;-64
2023/10/08 11:33:27;;;;;;;4.90;3.83;;;27.60;46.20;;;;;;5091779;28;20671;-63
2023/10/08 11:35:59;;;;;;;5.53;3.90;;;27.70;46.40;;;;;;5091880;28;20230;-64
2023/10/08 11:38:27;;;;;;;6.13;3.90;;;27.80;45.80;;;;;;5091757;28;20211;-64
2023/10/08 11:40:57;;;;;;;5.43;3.67;;;28.00;45.90;;;;;;5091759;28;20274;-63
2023/10/08 11:43:25;;;;;;;5.30;3.53;;;28.20;45.00;;;;;;5091959;28;20614;-64
2023/10/08 11:45:52;;;;;;;6.00;3.83;;;28.30;44.70;;;;;;5091984;28;20281;-64
2023/10/08 11:48:28;;;;;;;6.93;3.63;;;28.50;44.70;;;;;;5091387;28;20200;-64
2023/10/08 11:50:57;;;;;;;7.03;3.83;;;28.40;43.80;;;;;;5091638;28;20349;-64
2023/10/08 11:53:24;;;;;;;5.80;3.97;;;28.50;44.00;;;;;;5057068;28;20208;-64
2023/10/08 11:55:56;;;;;;;5.67;4.47;;;28.50;44.30;;;;;;5091795;28;20730;-65
2023/10/08 11:58:37;;;;;;;5.43;4.07;;;28.60;43.60;;;;;;5091751;28;20249;-63
2023/10/08 12:01:04;;;;;;;4.90;3.63;;;28.60;43.80;;;;;;5092669;28;20239;-64
2023/10/08 12:03:31;;;;;;;5.23;3.87;;;28.80;44.10;;;;;;5095736;28;20212;-63
2023/10/08 12:05:59;;;;;;;5.87;4.43;;;29.00;43.90;;;;;;5095673;28;20204;-65
2023/10/08 12:08:28;;;;;;;6.03;3.70;;;29.20;43.10;;;;;;5095634;28;20200;-64
2023/10/08 12:10:55;;;;;;;5.90;3.67;;;29.30;43.20;;;;;;5095522;28;20219;-63
2023/10/08 12:13:24;;;;;;;7.17;4.37;;;29.30;42.70;;;;;;5095471;28;20236;-63
2023/10/08 12:15:52;;;;;;;5.77;3.80;;;29.40;42.80;;;;;;5095033;28;20295;-64
2023/10/08 12:18:25;;;;;;;6.17;4.27;;;29.50;42.80;;;;;;5095542;28;20231;-63
2023/10/08 12:20:54;;;;;;;5.20;3.90;;;29.80;42.70;;;;;;5095328;28;20253;-64
2023/10/08 12:23:24;;;;;;;5.73;4.20;;;30.00;42.60;;;;;;5095640;28;20232;-65
2023/10/08 12:25:52;;;;;;;5.90;3.70;;;30.10;41.70;;;;;;5095437;28;20323;-64
2023/10/08 12:28:19;;;;;;;7.03;4.40;;;30.20;41.50;;;;;;5094978;28;20658;-64
2023/10/08 12:30:49;;;;;;;5.83;4.03;;;30.20;41.70;;;;;;5094979;28;20649;-63
2023/10/08 12:33:16;;;;;;;7.40;3.83;;;30.20;41.60;;;;;;5095307;28;20200;-64
2023/10/08 12:35:44;;;;;;;5.90;4.40;;;30.30;41.50;;;;;;5095146;28;20205;-64
2023/10/08 12:38:12;;;;;;;5.43;3.87;;;30.30;41.90;;;;;;5095175;28;20616;-63
2023/10/08 12:40:47;;;;;;;5.53;3.97;;;30.40;42.30;;;;;;5095063;28;20201;-65
2023/10/08 12:43:16;;;;;;;8.77;4.60;;;30.80;41.90;;;;;;5095493;28;20543;-63
2023/10/08 12:45:45;;;;;;;6.57;4.27;;;30.90;41.20;;;;;;5094633;28;20226;-63
2023/10/08 12:48:13;;;;;;;7.77;4.00;;;30.70;41.40;;;;;;5094613;28;20205;-63
2023/10/08 12:50:43;;;;;;;7.10;3.93;;;30.70;41.70;;;;;;5094842;28;20229;-64
2023/10/08 12:53:11;;;;;;;5.60;4.07;;;30.60;41.20;;;;;;5094695;28;20208;-63
2023/10/08 12:55:39;;;;;;;5.70;4.13;;;30.60;41.40;;;;;;5094661;28;20264;-64
2023/10/08 12:58:09;;;;;;;6.83;4.20;;;30.70;41.40;;;;;;5094970;28;20205;-64
2023/10/08 13:00:38;;;;;;;6.37;4.30;;;30.80;41.50;;;;;;5094205;28;20251;-64
2023/10/08 13:03:14;;;;;;;5.83;3.77;;;31.20;41.30;;;;;;5094771;28;20234;-64
2023/10/08 13:05:44;;;;;;;5.10;3.83;;;31.20;40.60;;;;;;5094530;28;20236;-64
2023/10/08 13:08:13;;;;;;;5.80;4.43;;;31.40;41.00;;;;;;5094420;28;20221;-63
2023/10/08 13:10:43;;;;;;;7.07;4.07;;;31.70;40.50;;;;;;5094419;28;20322;-64
2023/10/08 13:13:12;;;;;;;8.07;4.40;;;31.70;40.40;;;;;;5078343;28;20225;-64
2023/10/08 13:15:41;;;;;;;6.30;3.90;;;32.00;40.00;;;;;;5074006;28;20242;-64
2023/10/08 13:18:08;;;;;;;6.13;4.33;;;32.40;39.70;;;;;;5074563;28;20211;-65